Chaleur - Miscou: Past 24 Hour Conditions

 

St. Anthony Airport

05:30 AM NST 24 November 2014
This table is a summary of hourly weather conditions for the past 24 hours.
Date / Time
(NST)
Wind(knots) Conditions Visibility(km) Pressure(kPa) Air tempC) Relative humidity(%) Dew pointC) Wind Chill
24 November 2014
5:30 W 11 Clear 16 102.0 -8 76 -12 -16
4:30 W 9 Clear 16 101.9 -9 77 -12 -16
3:30 W 8 Clear 16 101.7 -10 77 -13 -16
2:30 W 11 gust 16 N/A N/A 101.7 -9 75 -13 -17
1:30 W 13 N/A 16 101.5 -10 74 -14 -18
0:30 N/A N/A N/A N/A N/A N/A N/A *
23 November 2014
23:30 W 21 gust 28 Clear 16 101.3 -9 71 -13 -19
22:30 W 25 gust 32 Clear 16 101.2 -8 67 -14 -19
21:30 W 20 gust 26 Clear 16 101.1 -8 68 -13 -18
20:30 W 19 gust 26 Clear 16 101.0 -8 65 -13 -17
19:30 W 20 gust 28 Clear 16 100.9 -7 64 -13 -17
18:30 W 17 gust 26 Clear 16 100.7 -7 63 -13 -16
17:30 WNW 15 Mainly Clear 16 100.6 -6 66 -11 -13
16:30 W 15 Mainly Clear 16 100.4 -5 69 -10 -13
15:30 W 18 gust 26 N/A N/A 100.2 -4 63 -10 -12
14:30 W 18 Mostly Cloudy 16 100.1 -4 64 -10 -12
13:30 WSW 16 N/A N/A 100.0 -4 70 -9 -12
12:30 WSW 16 gust 24 N/A N/A 99.9 -4 72 -9 -12
11:30 WSW 19 Mostly Cloudy 16 99.9 -5 77 -8 -13
10:30 WSW 18 Cloudy 16 99.9 -4 78 -8 -13
9:30 N/A N/A N/A N/A N/A N/A N/A *
8:30 W 11 Sunny 16 99.9 -7 80 -10 -14
7:30 WSW 12 Clear 16 99.8 -7 80 -10 -14
6:30 W 15 gust 22 Cloudy 16 99.7 -6 77 -10 -14
5:30 W 17 Cloudy 16 99.7 -6 77 -10 -15
 
Map of Atlantic - Newfoundland marine weather areas Southwestern Grand Banks - 44138 Banquereau - 44139 Tail of the Bank - 44140 Nickerson Bank - 44251 Northeast Burgeo Bank - 44255 Blanc-Sablon Airport Cap Whittle Chevery Natashquan Airport Heath Point Miscou Island Grand Étang Ingonish Beach North Mountain St.Paul Island J.A. Douglas McCurdy Sydney Airport Charlottetown Airport East Point North Cape Argentia Bonavista Burgeo Cape Race Corner Brook Daniel's Harbour Englee Ferolle Point La Scie Port aux Basques Rocky Harbour Sagona Island St. Anthony Airport St. John's Int'l Airport St. Lawrence Stephenville Airport Twillingate Winterland Wreckhouse Cartwright Airport Mary's Harbour Grates Cove Pool's Island Marticot Island Long Pond Îles de la Madeleine Airport
Legend: buoyBuoy land stationLand Station